sensor_id;sensor_type;location;lat;lon;timestamp;temperature;humidity
45137;DHT22;30894;51.740;19.498;2022-10-22T00:00:48;10.30;99.90
45137;DHT22;30894;51.740;19.498;2022-10-22T00:03:33;10.40;99.90
45137;DHT22;30894;51.740;19.498;2022-10-22T00:06:00;10.30;99.90
45137;DHT22;30894;51.740;19.498;2022-10-22T00:08:26;10.30;99.90
45137;DHT22;30894;51.740;19.498;2022-10-22T00:10:55;10.30;99.90
45137;DHT22;30894;51.740;19.498;2022-10-22T00:13:21;10.30;99.90
45137;DHT22;30894;51.740;19.498;2022-10-22T00:15:50;10.30;99.90
45137;DHT22;30894;51.740;19.498;2022-10-22T00:18:16;10.30;99.90
45137;DHT22;30894;51.740;19.498;2022-10-22T00:20:43;10.20;99.90
45137;DHT22;30894;51.740;19.498;2022-10-22T00:23:09;10.20;99.90
45137;DHT22;30894;51.740;19.498;2022-10-22T00:25:35;10.30;99.90
45137;DHT22;30894;51.740;19.498;2022-10-22T00:28:02;10.20;99.90
45137;DHT22;30894;51.740;19.498;2022-10-22T00:30:29;10.20;99.90
45137;DHT22;30894;51.740;19.498;2022-10-22T00:32:54;10.20;99.90
45137;DHT22;30894;51.740;19.498;2022-10-22T00:35:20;10.20;99.90
45137;DHT22;30894;51.740;19.498;2022-10-22T00:37:46;10.20;99.90
45137;DHT22;30894;51.740;19.498;2022-10-22T00:40:13;10.20;99.90
45137;DHT22;30894;51.740;19.498;2022-10-22T00:42:39;10.20;99.90
45137;DHT22;30894;51.740;19.498;2022-10-22T00:45:09;10.20;99.90
45137;DHT22;30894;51.740;19.498;2022-10-22T00:47:45;10.20;99.90
45137;DHT22;30894;51.740;19.498;2022-10-22T00:50:23;10.20;99.90
45137;DHT22;30894;51.740;19.498;2022-10-22T00:52:53;10.20;99.90
45137;DHT22;30894;51.740;19.498;2022-10-22T00:55:20;10.20;99.90
45137;DHT22;30894;51.740;19.498;2022-10-22T00:57:47;10.20;99.90
45137;DHT22;30894;51.740;19.498;2022-10-22T01:00:14;10.10;99.90
45137;DHT22;30894;51.740;19.498;2022-10-22T01:02:41;10.10;99.90
45137;DHT22;30894;51.740;19.498;2022-10-22T01:05:07;10.10;99.90
45137;DHT22;30894;51.740;19.498;2022-10-22T01:07:40;10.10;99.90
45137;DHT22;30894;51.740;19.498;2022-10-22T01:13:40;10.10;99.90
45137;DHT22;30894;51.740;19.498;2022-10-22T01:16:10;10.10;99.90
45137;DHT22;30894;51.740;19.498;2022-10-22T01:18:44;10.10;99.90
45137;DHT22;30894;51.740;19.498;2022-10-22T01:21:29;10.10;99.90
45137;DHT22;30894;51.740;19.498;2022-10-22T01:29:57;10.10;99.90
45137;DHT22;30894;51.740;19.498;2022-10-22T01:32:27;10.10;99.90
45137;DHT22;30894;51.740;19.498;2022-10-22T01:34:59;10.10;99.90
45137;DHT22;30894;51.740;19.498;2022-10-22T01:37:30;10.10;99.90
45137;DHT22;30894;51.740;19.498;2022-10-22T01:39:59;10.10;99.90
45137;DHT22;30894;51.740;19.498;2022-10-22T01:42:26;10.10;99.90
45137;DHT22;30894;51.740;19.498;2022-10-22T01:44:51;10.10;99.90
45137;DHT22;30894;51.740;19.498;2022-10-22T01:47:49;10.00;99.90
45137;DHT22;30894;51.740;19.498;2022-10-22T01:50:33;10.00;99.90
45137;DHT22;30894;51.740;19.498;2022-10-22T01:53:17;10.00;99.90
45137;DHT22;30894;51.740;19.498;2022-10-22T01:58:33;10.10;99.90
45137;DHT22;30894;51.740;19.498;2022-10-22T02:01:14;10.00;99.90
45137;DHT22;30894;51.740;19.498;2022-10-22T02:06:28;10.00;99.90
45137;DHT22;30894;51.740;19.498;2022-10-22T02:08:57;10.00;99.90
45137;DHT22;30894;51.740;19.498;2022-10-22T02:11:23;10.00;99.90
45137;DHT22;30894;51.740;19.498;2022-10-22T02:13:52;10.00;99.90
45137;DHT22;30894;51.740;19.498;2022-10-22T02:16:33;10.00;99.90
45137;DHT22;30894;51.740;19.498;2022-10-22T02:19:06;10.00;99.90
45137;DHT22;30894;51.740;19.498;2022-10-22T02:21:55;10.00;99.90
45137;DHT22;30894;51.740;19.498;2022-10-22T02:24:21;10.00;99.90
45137;DHT22;30894;51.740;19.498;2022-10-22T02:26:51;9.90;99.90
45137;DHT22;30894;51.740;19.498;2022-10-22T02:29:29;9.90;99.90
45137;DHT22;30894;51.740;19.498;2022-10-22T02:32:03;9.90;99.90
45137;DHT22;30894;51.740;19.498;2022-10-22T02:34:31;9.90;99.90
45137;DHT22;30894;51.740;19.498;2022-10-22T02:36:59;9.90;99.90
45137;DHT22;30894;51.740;19.498;2022-10-22T02:39:26;9.90;99.90
45137;DHT22;30894;51.740;19.498;2022-10-22T02:41:54;9.80;99.90
45137;DHT22;30894;51.740;19.498;2022-10-22T02:44:22;9.90;99.90
45137;DHT22;30894;51.740;19.498;2022-10-22T02:46:49;9.80;99.90
45137;DHT22;30894;51.740;19.498;2022-10-22T02:49:16;9.90;99.90
45137;DHT22;30894;51.740;19.498;2022-10-22T02:51:42;9.90;99.90
45137;DHT22;30894;51.740;19.498;2022-10-22T02:54:08;9.90;99.90
45137;DHT22;30894;51.740;19.498;2022-10-22T02:56:34;9.80;99.90
45137;DHT22;30894;51.740;19.498;2022-10-22T02:59:01;9.80;99.90
45137;DHT22;30894;51.740;19.498;2022-10-22T03:01:26;9.80;99.90
45137;DHT22;30894;51.740;19.498;2022-10-22T03:03:52;9.80;99.90
45137;DHT22;30894;51.740;19.498;2022-10-22T03:06:18;9.80;99.90
45137;DHT22;30894;51.740;19.498;2022-10-22T03:08:45;9.80;99.90
45137;DHT22;30894;51.740;19.498;2022-10-22T03:11:11;9.80;99.90
45137;DHT22;30894;51.740;19.498;2022-10-22T03:13:37;9.80;99.90
45137;DHT22;30894;51.740;19.498;2022-10-22T03:16:03;9.80;99.90
45137;DHT22;30894;51.740;19.498;2022-10-22T03:18:29;9.80;99.90
45137;DHT22;30894;51.740;19.498;2022-10-22T03:21:20;9.80;99.90
45137;DHT22;30894;51.740;19.498;2022-10-22T03:23:51;9.80;99.90
45137;DHT22;30894;51.740;19.498;2022-10-22T03:26:17;9.80;99.90
45137;DHT22;30894;51.740;19.498;2022-10-22T03:28:44;9.80;99.90
45137;DHT22;30894;51.740;19.498;2022-10-22T03:31:12;9.80;99.90
45137;DHT22;30894;51.740;19.498;2022-10-22T03:33:38;9.80;99.90
45137;DHT22;30894;51.740;19.498;2022-10-22T03:36:06;9.80;99.90
45137;DHT22;30894;51.740;19.498;2022-10-22T03:38:38;9.80;99.90
45137;DHT22;30894;51.740;19.498;2022-10-22T03:41:04;9.80;99.90
45137;DHT22;30894;51.740;19.498;2022-10-22T03:43:33;9.80;99.90
45137;DHT22;30894;51.740;19.498;2022-10-22T03:46:00;9.90;99.90
45137;DHT22;30894;51.740;19.498;2022-10-22T03:48:26;9.90;99.90
45137;DHT22;30894;51.740;19.498;2022-10-22T03:50:52;9.90;99.90
45137;DHT22;30894;51.740;19.498;2022-10-22T03:53:18;9.90;99.90
45137;DHT22;30894;51.740;19.498;2022-10-22T03:55:44;9.90;99.90
45137;DHT22;30894;51.740;19.498;2022-10-22T03:58:10;9.90;99.90
45137;DHT22;30894;51.740;19.498;2022-10-22T04:00:36;9.90;99.90
45137;DHT22;30894;51.740;19.498;2022-10-22T04:03:02;9.90;99.90
45137;DHT22;30894;51.740;19.498;2022-10-22T04:05:28;9.90;99.90
45137;DHT22;30894;51.740;19.498;2022-10-22T04:07:54;9.90;99.90
45137;DHT22;30894;51.740;19.498;2022-10-22T04:10:20;9.90;99.90
45137;DHT22;30894;51.740;19.498;2022-10-22T04:12:47;9.90;99.90
45137;DHT22;30894;51.740;19.498;2022-10-22T04:15:13;9.90;99.90
45137;DHT22;30894;51.740;19.498;2022-10-22T04:17:39;9.80;99.90
45137;DHT22;30894;51.740;19.498;2022-10-22T04:20:05;9.80;99.90
45137;DHT22;30894;51.740;19.498;2022-10-22T04:22:35;9.80;99.90
45137;DHT22;30894;51.740;19.498;2022-10-22T04:25:02;9.80;99.90
45137;DHT22;30894;51.740;19.498;2022-10-22T04:27:31;9.80;99.90
45137;DHT22;30894;51.740;19.498;2022-10-22T04:29:57;9.80;99.90
45137;DHT22;30894;51.740;19.498;2022-10-22T04:32:24;9.80;99.90
45137;DHT22;30894;51.740;19.498;2022-10-22T04:34:51;9.90;99.90
45137;DHT22;30894;51.740;19.498;2022-10-22T04:37:17;9.80;99.90
45137;DHT22;30894;51.740;19.498;2022-10-22T04:39:43;9.80;99.90
45137;DHT22;30894;51.740;19.498;2022-10-22T04:42:10;9.80;99.90
45137;DHT22;30894;51.740;19.498;2022-10-22T04:44:36;9.90;99.90
45137;DHT22;30894;51.740;19.498;2022-10-22T04:47:02;9.90;99.90
45137;DHT22;30894;51.740;19.498;2022-10-22T04:49:28;9.90;99.90
45137;DHT22;30894;51.740;19.498;2022-10-22T04:51:54;9.90;99.90
45137;DHT22;30894;51.740;19.498;2022-10-22T04:54:20;9.90;99.90
45137;DHT22;30894;51.740;19.498;2022-10-22T04:56:47;9.90;99.90
45137;DHT22;30894;51.740;19.498;2022-10-22T04:59:13;9.90;99.90
45137;DHT22;30894;51.740;19.498;2022-10-22T05:01:41;9.90;99.90
45137;DHT22;30894;51.740;19.498;2022-10-22T05:04:10;9.90;99.90
45137;DHT22;30894;51.740;19.498;2022-10-22T05:06:38;9.90;99.90
45137;DHT22;30894;51.740;19.498;2022-10-22T05:09:06;10.00;99.90
45137;DHT22;30894;51.740;19.498;2022-10-22T05:11:38;10.00;99.90
45137;DHT22;30894;51.740;19.498;2022-10-22T05:14:10;9.90;99.90
45137;DHT22;30894;51.740;19.498;2022-10-22T05:16:36;9.90;99.90
45137;DHT22;30894;51.740;19.498;2022-10-22T05:19:06;9.90;99.90
45137;DHT22;30894;51.740;19.498;2022-10-22T05:21:33;9.90;99.90
45137;DHT22;30894;51.740;19.498;2022-10-22T05:23:59;10.00;99.90
45137;DHT22;30894;51.740;19.498;2022-10-22T05:26:27;10.00;99.90
45137;DHT22;30894;51.740;19.498;2022-10-22T05:28:53;9.90;99.90
45137;DHT22;30894;51.740;19.498;2022-10-22T05:31:20;10.00;99.90
45137;DHT22;30894;51.740;19.498;2022-10-22T05:33:46;10.00;99.90
45137;DHT22;30894;51.740;19.498;2022-10-22T05:36:18;10.00;99.90
45137;DHT22;30894;51.740;19.498;2022-10-22T05:38:45;10.10;99.90
45137;DHT22;30894;51.740;19.498;2022-10-22T05:41:17;10.00;99.90
45137;DHT22;30894;51.740;19.498;2022-10-22T05:43:45;10.10;99.90
45137;DHT22;30894;51.740;19.498;2022-10-22T05:46:15;10.10;99.90
45137;DHT22;30894;51.740;19.498;2022-10-22T05:48:42;10.10;99.90
45137;DHT22;30894;51.740;19.498;2022-10-22T05:51:11;10.10;99.90
45137;DHT22;30894;51.740;19.498;2022-10-22T05:53:39;10.20;99.90
45137;DHT22;30894;51.740;19.498;2022-10-22T05:56:10;10.20;99.90
45137;DHT22;30894;51.740;19.498;2022-10-22T05:58:38;10.20;99.90
45137;DHT22;30894;51.740;19.498;2022-10-22T06:01:10;10.20;99.90
45137;DHT22;30894;51.740;19.498;2022-10-22T06:03:39;10.20;99.90
45137;DHT22;30894;51.740;19.498;2022-10-22T06:06:28;10.20;99.90
45137;DHT22;30894;51.740;19.498;2022-10-22T06:09:00;10.20;99.90
45137;DHT22;30894;51.740;19.498;2022-10-22T06:11:28;10.20;99.90
45137;DHT22;30894;51.740;19.498;2022-10-22T06:13:55;10.20;99.90
45137;DHT22;30894;51.740;19.498;2022-10-22T06:16:21;10.20;99.90
45137;DHT22;30894;51.740;19.498;2022-10-22T06:18:47;10.20;99.90
45137;DHT22;30894;51.740;19.498;2022-10-22T06:21:15;10.20;99.90
45137;DHT22;30894;51.740;19.498;2022-10-22T06:23:41;10.20;99.90
45137;DHT22;30894;51.740;19.498;2022-10-22T06:26:08;10.20;99.90
45137;DHT22;30894;51.740;19.498;2022-10-22T06:28:35;10.20;99.90
45137;DHT22;30894;51.740;19.498;2022-10-22T06:31:02;10.20;99.90
45137;DHT22;30894;51.740;19.498;2022-10-22T06:33:31;10.30;99.90
45137;DHT22;30894;51.740;19.498;2022-10-22T06:36:13;10.30;99.90
45137;DHT22;30894;51.740;19.498;2022-10-22T06:38:41;10.40;99.90
45137;DHT22;30894;51.740;19.498;2022-10-22T06:41:10;10.50;99.90
45137;DHT22;30894;51.740;19.498;2022-10-22T06:43:42;10.60;99.90
45137;DHT22;30894;51.740;19.498;2022-10-22T06:46:16;10.80;99.90
45137;DHT22;30894;51.740;19.498;2022-10-22T06:48:54;11.00;99.90
45137;DHT22;30894;51.740;19.498;2022-10-22T06:51:22;11.10;99.90
45137;DHT22;30894;51.740;19.498;2022-10-22T06:53:48;11.20;99.90
45137;DHT22;30894;51.740;19.498;2022-10-22T06:56:18;11.20;99.90
45137;DHT22;30894;51.740;19.498;2022-10-22T06:58:47;11.30;99.90
45137;DHT22;30894;51.740;19.498;2022-10-22T07:01:15;11.30;99.90
45137;DHT22;30894;51.740;19.498;2022-10-22T07:03:43;11.30;99.90
45137;DHT22;30894;51.740;19.498;2022-10-22T07:06:12;11.30;99.90
45137;DHT22;30894;51.740;19.498;2022-10-22T07:08:40;11.20;99.90
45137;DHT22;30894;51.740;19.498;2022-10-22T07:11:12;11.20;99.90
45137;DHT22;30894;51.740;19.498;2022-10-22T07:13:42;11.20;99.90
45137;DHT22;30894;51.740;19.498;2022-10-22T07:16:10;11.20;99.90
45137;DHT22;30894;51.740;19.498;2022-10-22T07:18:37;11.20;99.90
45137;DHT22;30894;51.740;19.498;2022-10-22T07:21:05;11.10;99.90
45137;DHT22;30894;51.740;19.498;2022-10-22T07:23:31;11.10;99.90
45137;DHT22;30894;51.740;19.498;2022-10-22T07:25:58;11.00;99.90
45137;DHT22;30894;51.740;19.498;2022-10-22T07:28:24;11.00;99.90
45137;DHT22;30894;51.740;19.498;2022-10-22T07:30:50;10.90;99.90
45137;DHT22;30894;51.740;19.498;2022-10-22T07:33:16;10.90;99.90
45137;DHT22;30894;51.740;19.498;2022-10-22T07:35:42;10.80;99.90
45137;DHT22;30894;51.740;19.498;2022-10-22T07:38:08;10.80;99.90
45137;DHT22;30894;51.740;19.498;2022-10-22T07:40:35;10.90;99.90
45137;DHT22;30894;51.740;19.498;2022-10-22T07:43:02;10.90;99.90
45137;DHT22;30894;51.740;19.498;2022-10-22T07:45:28;10.90;99.90
45137;DHT22;30894;51.740;19.498;2022-10-22T07:47:54;11.10;99.90
45137;DHT22;30894;51.740;19.498;2022-10-22T07:50:20;11.30;99.90
45137;DHT22;30894;51.740;19.498;2022-10-22T07:52:46;11.40;99.90
45137;DHT22;30894;51.740;19.498;2022-10-22T07:55:13;11.60;99.90
45137;DHT22;30894;51.740;19.498;2022-10-22T07:57:39;11.70;99.90
45137;DHT22;30894;51.740;19.498;2022-10-22T08:00:07;11.80;99.90
45137;DHT22;30894;51.740;19.498;2022-10-22T08:02:33;11.70;99.90
45137;DHT22;30894;51.740;19.498;2022-10-22T08:05:00;11.70;99.90
45137;DHT22;30894;51.740;19.498;2022-10-22T08:07:26;11.60;99.90
45137;DHT22;30894;51.740;19.498;2022-10-22T08:09:52;11.60;99.90
45137;DHT22;30894;51.740;19.498;2022-10-22T08:12:18;11.60;99.90
45137;DHT22;30894;51.740;19.498;2022-10-22T08:14:44;11.70;99.90
45137;DHT22;30894;51.740;19.498;2022-10-22T08:17:10;11.80;99.90
45137;DHT22;30894;51.740;19.498;2022-10-22T08:19:36;11.80;99.90
45137;DHT22;30894;51.740;19.498;2022-10-22T08:22:02;11.80;99.90
45137;DHT22;30894;51.740;19.498;2022-10-22T08:24:29;11.80;99.90
45137;DHT22;30894;51.740;19.498;2022-10-22T08:26:58;11.80;99.90
45137;DHT22;30894;51.740;19.498;2022-10-22T08:29:24;11.80;99.90
45137;DHT22;30894;51.740;19.498;2022-10-22T08:31:52;11.90;99.90
45137;DHT22;30894;51.740;19.498;2022-10-22T08:34:19;11.90;99.90
45137;DHT22;30894;51.740;19.498;2022-10-22T08:36:46;11.90;99.90
45137;DHT22;30894;51.740;19.498;2022-10-22T08:39:12;11.90;99.90
45137;DHT22;30894;51.740;19.498;2022-10-22T08:44:50;12.00;99.90
45137;DHT22;30894;51.740;19.498;2022-10-22T08:50:11;12.20;99.90
45137;DHT22;30894;51.740;19.498;2022-10-22T08:52:43;12.30;99.90
45137;DHT22;30894;51.740;19.498;2022-10-22T08:55:16;12.30;99.90
45137;DHT22;30894;51.740;19.498;2022-10-22T08:57:51;12.40;99.90
45137;DHT22;30894;51.740;19.498;2022-10-22T09:03:56;12.40;99.90
45137;DHT22;30894;51.740;19.498;2022-10-22T09:06:41;12.40;99.90
45137;DHT22;30894;51.740;19.498;2022-10-22T09:09:16;12.40;99.90
45137;DHT22;30894;51.740;19.498;2022-10-22T09:11:46;12.50;99.90
45137;DHT22;30894;51.740;19.498;2022-10-22T09:14:19;12.50;99.90
45137;DHT22;30894;51.740;19.498;2022-10-22T09:22:40;12.40;99.90
45137;DHT22;30894;51.740;19.498;2022-10-22T09:25:26;12.40;99.90
45137;DHT22;30894;51.740;19.498;2022-10-22T09:27:54;12.40;99.90
45137;DHT22;30894;51.740;19.498;2022-10-22T09:30:28;12.50;99.90
45137;DHT22;30894;51.740;19.498;2022-10-22T09:33:11;12.50;99.90
45137;DHT22;30894;51.740;19.498;2022-10-22T09:35:57;12.60;99.90
45137;DHT22;30894;51.740;19.498;2022-10-22T09:38:31;12.70;99.90
45137;DHT22;30894;51.740;19.498;2022-10-22T09:40:59;12.60;99.90
45137;DHT22;30894;51.740;19.498;2022-10-22T09:43:29;12.70;99.90
45137;DHT22;30894;51.740;19.498;2022-10-22T09:46:02;12.70;99.90
45137;DHT22;30894;51.740;19.498;2022-10-22T09:48:36;12.70;99.90
45137;DHT22;30894;51.740;19.498;2022-10-22T09:51:22;12.70;99.90
45137;DHT22;30894;51.740;19.498;2022-10-22T09:53:58;12.70;99.90
45137;DHT22;30894;51.740;19.498;2022-10-22T09:58:57;12.80;99.90
45137;DHT22;30894;51.740;19.498;2022-10-22T10:01:35;12.70;99.90
45137;DHT22;30894;51.740;19.498;2022-10-22T10:04:11;12.70;99.90
45137;DHT22;30894;51.740;19.498;2022-10-22T10:06:42;12.80;99.90
45137;DHT22;30894;51.740;19.498;2022-10-22T10:14:39;12.80;99.90
45137;DHT22;30894;51.740;19.498;2022-10-22T10:17:35;12.90;99.90
45137;DHT22;30894;51.740;19.498;2022-10-22T10:31:44;12.90;99.90
45137;DHT22;30894;51.740;19.498;2022-10-22T10:34:47;12.90;99.90
45137;DHT22;30894;51.740;19.498;2022-10-22T10:40:55;12.90;99.90
45137;DHT22;30894;51.740;19.498;2022-10-22T10:49:48;13.10;99.90
45137;DHT22;30894;51.740;19.498;2022-10-22T11:01:28;13.30;99.90
45137;DHT22;30894;51.740;19.498;2022-10-22T11:07:10;13.30;99.90
45137;DHT22;30894;51.740;19.498;2022-10-22T11:09:56;13.40;99.90
45137;DHT22;30894;51.740;19.498;2022-10-22T11:12:32;13.30;99.90
45137;DHT22;30894;51.740;19.498;2022-10-22T11:15:22;13.40;99.90
45137;DHT22;30894;51.740;19.498;2022-10-22T11:17:52;13.30;99.90
45137;DHT22;30894;51.740;19.498;2022-10-22T11:20:39;13.30;99.90
45137;DHT22;30894;51.740;19.498;2022-10-22T11:27:00;13.40;99.90
45137;DHT22;30894;51.740;19.498;2022-10-22T11:29:36;13.40;99.90
45137;DHT22;30894;51.740;19.498;2022-10-22T11:32:13;13.50;99.90
45137;DHT22;30894;51.740;19.498;2022-10-22T11:34:49;13.60;99.90
45137;DHT22;30894;51.740;19.498;2022-10-22T11:37:21;13.60;99.90
45137;DHT22;30894;51.740;19.498;2022-10-22T11:40:06;13.70;99.90
45137;DHT22;30894;51.740;19.498;2022-10-22T11:42:52;13.70;99.90
45137;DHT22;30894;51.740;19.498;2022-10-22T11:53:28;13.90;99.90
45137;DHT22;30894;51.740;19.498;2022-10-22T11:58:34;14.10;99.90
45137;DHT22;30894;51.740;19.498;2022-10-22T12:11:38;13.80;99.90
45137;DHT22;30894;51.740;19.498;2022-10-22T12:14:33;13.80;99.90
45137;DHT22;30894;51.740;19.498;2022-10-22T12:17:13;13.70;99.90
45137;DHT22;30894;51.740;19.498;2022-10-22T12:19:46;13.70;99.90
45137;DHT22;30894;51.740;19.498;2022-10-22T12:22:25;13.60;99.90
45137;DHT22;30894;51.740;19.498;2022-10-22T12:24:54;13.70;99.90
45137;DHT22;30894;51.740;19.498;2022-10-22T12:27:34;13.70;99.90
45137;DHT22;30894;51.740;19.498;2022-10-22T12:30:20;13.80;99.90
45137;DHT22;30894;51.740;19.498;2022-10-22T12:32:57;13.80;99.90
45137;DHT22;30894;51.740;19.498;2022-10-22T12:35:27;13.70;99.90
45137;DHT22;30894;51.740;19.498;2022-10-22T12:38:06;13.70;99.90
45137;DHT22;30894;51.740;19.498;2022-10-22T12:40:40;13.70;99.90
45137;DHT22;30894;51.740;19.498;2022-10-22T12:43:11;13.70;99.90
45137;DHT22;30894;51.740;19.498;2022-10-22T12:45:38;13.70;99.90
45137;DHT22;30894;51.740;19.498;2022-10-22T12:48:15;13.70;99.90
45137;DHT22;30894;51.740;19.498;2022-10-22T12:50:52;13.70;99.90
45137;DHT22;30894;51.740;19.498;2022-10-22T12:53:50;13.60;99.90
45137;DHT22;30894;51.740;19.498;2022-10-22T12:56:35;13.60;99.90
45137;DHT22;30894;51.740;19.498;2022-10-22T12:59:26;13.50;99.90
45137;DHT22;30894;51.740;19.498;2022-10-22T13:02:10;13.50;99.90
45137;DHT22;30894;51.740;19.498;2022-10-22T13:07:52;13.50;99.90
45137;DHT22;30894;51.740;19.498;2022-10-22T13:10:25;13.50;99.90
45137;DHT22;30894;51.740;19.498;2022-10-22T13:13:03;13.50;99.90
45137;DHT22;30894;51.740;19.498;2022-10-22T13:15:38;13.60;99.90
45137;DHT22;30894;51.740;19.498;2022-10-22T13:18:16;13.60;99.90
45137;DHT22;30894;51.740;19.498;2022-10-22T13:20:56;13.70;99.90
45137;DHT22;30894;51.740;19.498;2022-10-22T13:23:30;13.80;99.90
45137;DHT22;30894;51.740;19.498;2022-10-22T13:26:11;13.90;99.90
45137;DHT22;30894;51.740;19.498;2022-10-22T13:28:42;14.00;99.90
45137;DHT22;30894;51.740;19.498;2022-10-22T13:31:37;14.10;99.90
45137;DHT22;30894;51.740;19.498;2022-10-22T13:34:16;14.20;99.90
45137;DHT22;30894;51.740;19.498;2022-10-22T13:36:55;14.20;99.90
45137;DHT22;30894;51.740;19.498;2022-10-22T13:39:23;14.20;99.90
45137;DHT22;30894;51.740;19.498;2022-10-22T13:41:50;14.20;99.90
45137;DHT22;30894;51.740;19.498;2022-10-22T13:44:18;14.10;99.90
45137;DHT22;30894;51.740;19.498;2022-10-22T13:46:48;14.20;99.90
45137;DHT22;30894;51.740;19.498;2022-10-22T13:49:19;14.20;99.90
45137;DHT22;30894;51.740;19.498;2022-10-22T13:51:48;14.10;99.90
45137;DHT22;30894;51.740;19.498;2022-10-22T13:54:21;14.10;99.90
45137;DHT22;30894;51.740;19.498;2022-10-22T13:56:48;14.10;99.90
45137;DHT22;30894;51.740;19.498;2022-10-22T13:59:14;14.10;99.90
45137;DHT22;30894;51.740;19.498;2022-10-22T14:01:41;14.10;99.90
45137;DHT22;30894;51.740;19.498;2022-10-22T14:04:10;14.10;99.90
45137;DHT22;30894;51.740;19.498;2022-10-22T14:06:38;14.00;99.90
45137;DHT22;30894;51.740;19.498;2022-10-22T14:09:06;14.10;99.90
45137;DHT22;30894;51.740;19.498;2022-10-22T14:11:37;14.00;99.90
45137;DHT22;30894;51.740;19.498;2022-10-22T14:14:03;14.00;99.90
45137;DHT22;30894;51.740;19.498;2022-10-22T14:16:34;13.90;99.90
45137;DHT22;30894;51.740;19.498;2022-10-22T14:19:02;13.90;99.90
45137;DHT22;30894;51.740;19.498;2022-10-22T14:21:32;13.90;99.90
45137;DHT22;30894;51.740;19.498;2022-10-22T14:24:01;13.80;99.90
45137;DHT22;30894;51.740;19.498;2022-10-22T14:26:30;13.80;99.90
45137;DHT22;30894;51.740;19.498;2022-10-22T14:28:59;13.70;99.90
45137;DHT22;30894;51.740;19.498;2022-10-22T14:31:27;13.80;99.90
45137;DHT22;30894;51.740;19.498;2022-10-22T14:33:53;13.70;99.90
45137;DHT22;30894;51.740;19.498;2022-10-22T14:36:20;13.60;99.90
45137;DHT22;30894;51.740;19.498;2022-10-22T14:38:47;13.60;99.90
45137;DHT22;30894;51.740;19.498;2022-10-22T14:41:18;13.60;99.90
45137;DHT22;30894;51.740;19.498;2022-10-22T14:43:46;13.50;99.90
45137;DHT22;30894;51.740;19.498;2022-10-22T14:46:14;13.50;99.90
45137;DHT22;30894;51.740;19.498;2022-10-22T14:48:45;13.40;99.90
45137;DHT22;30894;51.740;19.498;2022-10-22T14:51:17;13.40;99.90
45137;DHT22;30894;51.740;19.498;2022-10-22T14:53:51;13.40;99.90
45137;DHT22;30894;51.740;19.498;2022-10-22T14:56:21;13.40;99.90
45137;DHT22;30894;51.740;19.498;2022-10-22T14:58:50;13.40;99.90
45137;DHT22;30894;51.740;19.498;2022-10-22T15:01:16;13.30;99.90
45137;DHT22;30894;51.740;19.498;2022-10-22T15:03:45;13.30;99.90
45137;DHT22;30894;51.740;19.498;2022-10-22T15:06:34;13.30;99.90
45137;DHT22;30894;51.740;19.498;2022-10-22T15:09:01;13.30;99.90
45137;DHT22;30894;51.740;19.498;2022-10-22T15:11:28;13.20;99.90
45137;DHT22;30894;51.740;19.498;2022-10-22T15:14:05;13.20;99.90
45137;DHT22;30894;51.740;19.498;2022-10-22T15:16:48;13.20;99.90
45137;DHT22;30894;51.740;19.498;2022-10-22T15:19:40;13.20;99.90
45137;DHT22;30894;51.740;19.498;2022-10-22T15:22:13;13.20;99.90
45137;DHT22;30894;51.740;19.498;2022-10-22T15:24:40;13.20;99.90
45137;DHT22;30894;51.740;19.498;2022-10-22T15:27:13;13.20;99.90
45137;DHT22;30894;51.740;19.498;2022-10-22T15:29:45;13.20;99.90
45137;DHT22;30894;51.740;19.498;2022-10-22T15:32:12;13.20;99.90
45137;DHT22;30894;51.740;19.498;2022-10-22T15:34:39;13.10;99.90
45137;DHT22;30894;51.740;19.498;2022-10-22T15:37:11;13.10;99.90
45137;DHT22;30894;51.740;19.498;2022-10-22T15:39:41;13.20;99.90
45137;DHT22;30894;51.740;19.498;2022-10-22T15:42:08;13.10;99.90
45137;DHT22;30894;51.740;19.498;2022-10-22T15:44:35;13.10;99.90
45137;DHT22;30894;51.740;19.498;2022-10-22T15:47:06;13.10;99.90
45137;DHT22;30894;51.740;19.498;2022-10-22T15:49:35;13.20;99.90
45137;DHT22;30894;51.740;19.498;2022-10-22T15:52:04;13.10;99.90
45137;DHT22;30894;51.740;19.498;2022-10-22T15:54:34;13.10;99.90
45137;DHT22;30894;51.740;19.498;2022-10-22T15:57:00;13.10;99.90
45137;DHT22;30894;51.740;19.498;2022-10-22T15:59:31;13.10;99.90
45137;DHT22;30894;51.740;19.498;2022-10-22T16:01:58;13.10;99.90
45137;DHT22;30894;51.740;19.498;2022-10-22T16:04:25;13.10;99.90
45137;DHT22;30894;51.740;19.498;2022-10-22T16:06:52;13.20;99.90
45137;DHT22;30894;51.740;19.498;2022-10-22T16:09:21;13.20;99.90
45137;DHT22;30894;51.740;19.498;2022-10-22T16:11:49;13.20;99.90
45137;DHT22;30894;51.740;19.498;2022-10-22T16:14:18;13.20;99.90
45137;DHT22;30894;51.740;19.498;2022-10-22T16:16:52;13.20;99.90
45137;DHT22;30894;51.740;19.498;2022-10-22T16:19:23;13.20;99.90
45137;DHT22;30894;51.740;19.498;2022-10-22T16:21:52;13.20;99.90
45137;DHT22;30894;51.740;19.498;2022-10-22T16:24:20;13.20;99.90
45137;DHT22;30894;51.740;19.498;2022-10-22T16:26:48;13.30;99.90
45137;DHT22;30894;51.740;19.498;2022-10-22T16:29:16;13.30;99.90
45137;DHT22;30894;51.740;19.498;2022-10-22T16:31:47;13.30;99.90
45137;DHT22;30894;51.740;19.498;2022-10-22T16:34:14;13.30;99.90
45137;DHT22;30894;51.740;19.498;2022-10-22T16:36:41;13.30;99.90
45137;DHT22;30894;51.740;19.498;2022-10-22T16:39:09;13.30;99.90
45137;DHT22;30894;51.740;19.498;2022-10-22T16:41:37;13.30;99.90
45137;DHT22;30894;51.740;19.498;2022-10-22T16:44:06;13.30;99.90
45137;DHT22;30894;51.740;19.498;2022-10-22T16:46:33;13.30;99.90
45137;DHT22;30894;51.740;19.498;2022-10-22T16:49:07;13.30;99.90
45137;DHT22;30894;51.740;19.498;2022-10-22T16:51:34;13.40;99.90
45137;DHT22;30894;51.740;19.498;2022-10-22T16:54:01;13.40;99.90
45137;DHT22;30894;51.740;19.498;2022-10-22T16:56:33;13.40;99.90
45137;DHT22;30894;51.740;19.498;2022-10-22T16:59:01;13.40;99.90
45137;DHT22;30894;51.740;19.498;2022-10-22T17:01:27;13.40;99.90
45137;DHT22;30894;51.740;19.498;2022-10-22T17:03:59;13.40;99.90
45137;DHT22;30894;51.740;19.498;2022-10-22T17:06:25;13.40;99.90
45137;DHT22;30894;51.740;19.498;2022-10-22T17:08:56;13.30;99.90
45137;DHT22;30894;51.740;19.498;2022-10-22T17:11:25;13.30;99.90
45137;DHT22;30894;51.740;19.498;2022-10-22T17:14:01;13.30;99.90
45137;DHT22;30894;51.740;19.498;2022-10-22T17:16:29;13.30;99.90
45137;DHT22;30894;51.740;19.498;2022-10-22T17:18:56;13.30;99.90
45137;DHT22;30894;51.740;19.498;2022-10-22T17:21:25;13.30;99.90